sensor_id;sensor_type;location;lat;lon;timestamp;P1;durP1;ratioP1;P2;durP2;ratioP2
18574;SDS011;9417;16.484;102.872;2023-04-06T00:00:28;77.38;;;51.15;;
18574;SDS011;9417;16.484;102.872;2023-04-06T00:02:35;109.30;;;59.10;;
18574;SDS011;9417;16.484;102.872;2023-04-06T00:04:43;124.07;;;71.22;;
18574;SDS011;9417;16.484;102.872;2023-04-06T00:06:52;105.47;;;61.40;;
18574;SDS011;9417;16.484;102.872;2023-04-06T00:09:00;90.90;;;52.00;;
18574;SDS011;9417;16.484;102.872;2023-04-06T00:11:07;91.88;;;52.35;;
18574;SDS011;9417;16.484;102.872;2023-04-06T00:13:15;66.03;;;41.60;;
18574;SDS011;9417;16.484;102.872;2023-04-06T00:15:22;68.45;;;43.20;;
18574;SDS011;9417;16.484;102.872;2023-04-06T00:17:29;58.30;;;39.83;;
18574;SDS011;9417;16.484;102.872;2023-04-06T00:19:37;64.68;;;37.72;;
18574;SDS011;9417;16.484;102.872;2023-04-06T00:21:44;60.25;;;39.88;;
18574;SDS011;9417;16.484;102.872;2023-04-06T00:23:53;61.80;;;40.38;;
18574;SDS011;9417;16.484;102.872;2023-04-06T00:26:00;56.70;;;37.20;;
18574;SDS011;9417;16.484;102.872;2023-04-06T00:28:08;57.58;;;37.35;;
18574;SDS011;9417;16.484;102.872;2023-04-06T00:30:16;55.55;;;37.05;;
18574;SDS011;9417;16.484;102.872;2023-04-06T00:32:24;55.55;;;34.88;;
18574;SDS011;9417;16.484;102.872;2023-04-06T00:34:31;55.22;;;37.55;;
18574;SDS011;9417;16.484;102.872;2023-04-06T00:36:38;52.28;;;32.83;;
18574;SDS011;9417;16.484;102.872;2023-04-06T00:38:46;49.22;;;31.25;;
18574;SDS011;9417;16.484;102.872;2023-04-06T00:40:55;41.80;;;29.02;;
18574;SDS011;9417;16.484;102.872;2023-04-06T00:43:03;39.95;;;27.05;;
18574;SDS011;9417;16.484;102.872;2023-04-06T00:45:10;44.00;;;28.17;;
18574;SDS011;9417;16.484;102.872;2023-04-06T00:47:18;38.47;;;26.38;;
18574;SDS011;9417;16.484;102.872;2023-04-06T00:49:26;40.80;;;27.25;;
18574;SDS011;9417;16.484;102.872;2023-04-06T00:51:33;40.70;;;29.45;;
18574;SDS011;9417;16.484;102.872;2023-04-06T00:53:40;43.75;;;28.42;;
18574;SDS011;9417;16.484;102.872;2023-04-06T00:55:49;39.50;;;27.58;;
18574;SDS011;9417;16.484;102.872;2023-04-06T00:57:59;41.03;;;27.10;;
18574;SDS011;9417;16.484;102.872;2023-04-06T01:00:15;39.42;;;28.30;;
18574;SDS011;9417;16.484;102.872;2023-04-06T01:02:29;42.53;;;28.92;;
18574;SDS011;9417;16.484;102.872;2023-04-06T01:04:36;46.47;;;31.63;;
18574;SDS011;9417;16.484;102.872;2023-04-06T01:06:50;46.63;;;31.33;;
18574;SDS011;9417;16.484;102.872;2023-04-06T01:09:03;43.28;;;31.25;;
18574;SDS011;9417;16.484;102.872;2023-04-06T01:11:11;44.08;;;30.20;;
18574;SDS011;9417;16.484;102.872;2023-04-06T01:13:20;50.08;;;31.55;;
18574;SDS011;9417;16.484;102.872;2023-04-06T01:15:35;43.47;;;30.70;;
18574;SDS011;9417;16.484;102.872;2023-04-06T01:19:53;42.30;;;29.27;;
18574;SDS011;9417;16.484;102.872;2023-04-06T01:22:05;44.63;;;29.55;;
18574;SDS011;9417;16.484;102.872;2023-04-06T01:24:21;47.75;;;28.88;;
18574;SDS011;9417;16.484;102.872;2023-04-06T01:26:50;44.95;;;31.20;;
18574;SDS011;9417;16.484;102.872;2023-04-06T01:28:57;41.75;;;29.35;;
18574;SDS011;9417;16.484;102.872;2023-04-06T01:31:06;43.63;;;28.80;;
18574;SDS011;9417;16.484;102.872;2023-04-06T01:33:18;39.72;;;26.02;;
18574;SDS011;9417;16.484;102.872;2023-04-06T01:35:47;35.10;;;23.83;;
18574;SDS011;9417;16.484;102.872;2023-04-06T01:37:55;32.22;;;24.38;;
18574;SDS011;9417;16.484;102.872;2023-04-06T01:40:11;31.90;;;23.10;;
18574;SDS011;9417;16.484;102.872;2023-04-06T01:42:23;30.60;;;21.98;;
18574;SDS011;9417;16.484;102.872;2023-04-06T01:44:32;32.63;;;23.73;;
18574;SDS011;9417;16.484;102.872;2023-04-06T01:46:44;35.47;;;23.70;;
18574;SDS011;9417;16.484;102.872;2023-04-06T01:48:54;36.15;;;24.17;;
18574;SDS011;9417;16.484;102.872;2023-04-06T01:51:08;32.70;;;23.80;;
18574;SDS011;9417;16.484;102.872;2023-04-06T01:53:22;33.15;;;23.35;;
18574;SDS011;9417;16.484;102.872;2023-04-06T01:55:37;33.80;;;23.25;;
18574;SDS011;9417;16.484;102.872;2023-04-06T01:57:56;31.77;;;23.35;;
18574;SDS011;9417;16.484;102.872;2023-04-06T02:00:10;31.98;;;24.02;;
18574;SDS011;9417;16.484;102.872;2023-04-06T02:02:25;32.67;;;23.25;;
18574;SDS011;9417;16.484;102.872;2023-04-06T02:04:37;28.73;;;22.73;;
18574;SDS011;9417;16.484;102.872;2023-04-06T02:06:47;32.92;;;23.13;;
18574;SDS011;9417;16.484;102.872;2023-04-06T02:08:57;29.38;;;23.02;;
18574;SDS011;9417;16.484;102.872;2023-04-06T02:11:07;32.75;;;21.92;;
18574;SDS011;9417;16.484;102.872;2023-04-06T02:13:19;33.20;;;23.30;;
18574;SDS011;9417;16.484;102.872;2023-04-06T02:15:28;34.25;;;24.83;;
18574;SDS011;9417;16.484;102.872;2023-04-06T02:17:35;31.60;;;22.80;;
18574;SDS011;9417;16.484;102.872;2023-04-06T02:19:44;39.00;;;24.88;;
18574;SDS011;9417;16.484;102.872;2023-04-06T02:21:51;43.03;;;26.25;;
18574;SDS011;9417;16.484;102.872;2023-04-06T02:23:58;33.88;;;24.90;;
18574;SDS011;9417;16.484;102.872;2023-04-06T02:26:07;35.60;;;23.77;;
18574;SDS011;9417;16.484;102.872;2023-04-06T02:28:14;37.45;;;23.75;;
18574;SDS011;9417;16.484;102.872;2023-04-06T02:30:22;29.48;;;22.67;;
18574;SDS011;9417;16.484;102.872;2023-04-06T02:32:29;37.72;;;24.08;;
18574;SDS011;9417;16.484;102.872;2023-04-06T02:34:37;33.33;;;23.45;;
18574;SDS011;9417;16.484;102.872;2023-04-06T02:36:45;32.50;;;23.13;;
18574;SDS011;9417;16.484;102.872;2023-04-06T02:38:52;33.65;;;23.92;;
18574;SDS011;9417;16.484;102.872;2023-04-06T02:41:00;33.53;;;23.73;;
18574;SDS011;9417;16.484;102.872;2023-04-06T02:43:09;32.25;;;23.08;;
18574;SDS011;9417;16.484;102.872;2023-04-06T02:45:16;34.45;;;23.50;;
18574;SDS011;9417;16.484;102.872;2023-04-06T02:47:23;30.13;;;22.15;;
18574;SDS011;9417;16.484;102.872;2023-04-06T02:49:31;32.03;;;23.15;;
18574;SDS011;9417;16.484;102.872;2023-04-06T02:51:38;29.33;;;22.05;;
18574;SDS011;9417;16.484;102.872;2023-04-06T02:54:07;30.52;;;22.63;;
18574;SDS011;9417;16.484;102.872;2023-04-06T02:56:14;29.48;;;23.15;;
18574;SDS011;9417;16.484;102.872;2023-04-06T02:58:26;41.47;;;27.35;;
18574;SDS011;9417;16.484;102.872;2023-04-06T03:00:34;33.13;;;24.25;;
18574;SDS011;9417;16.484;102.872;2023-04-06T03:02:41;36.28;;;24.25;;
18574;SDS011;9417;16.484;102.872;2023-04-06T03:04:51;36.45;;;25.02;;
18574;SDS011;9417;16.484;102.872;2023-04-06T03:07:04;33.38;;;24.33;;
18574;SDS011;9417;16.484;102.872;2023-04-06T03:09:14;34.88;;;24.63;;
18574;SDS011;9417;16.484;102.872;2023-04-06T03:11:21;36.03;;;24.58;;
18574;SDS011;9417;16.484;102.872;2023-04-06T03:13:32;31.65;;;23.08;;
18574;SDS011;9417;16.484;102.872;2023-04-06T03:15:39;35.42;;;24.13;;
18574;SDS011;9417;16.484;102.872;2023-04-06T03:17:50;34.33;;;24.75;;
18574;SDS011;9417;16.484;102.872;2023-04-06T03:22:19;30.60;;;23.02;;
18574;SDS011;9417;16.484;102.872;2023-04-06T03:24:27;30.58;;;23.52;;
18574;SDS011;9417;16.484;102.872;2023-04-06T03:26:34;35.80;;;24.73;;
18574;SDS011;9417;16.484;102.872;2023-04-06T03:28:44;33.70;;;23.98;;
18574;SDS011;9417;16.484;102.872;2023-04-06T03:33:21;33.97;;;24.60;;
18574;SDS011;9417;16.484;102.872;2023-04-06T03:35:31;34.95;;;23.98;;
18574;SDS011;9417;16.484;102.872;2023-04-06T03:37:40;33.28;;;24.25;;
18574;SDS011;9417;16.484;102.872;2023-04-06T03:39:48;31.42;;;24.98;;
18574;SDS011;9417;16.484;102.872;2023-04-06T03:41:58;30.42;;;24.48;;
18574;SDS011;9417;16.484;102.872;2023-04-06T03:44:12;31.58;;;22.77;;
18574;SDS011;9417;16.484;102.872;2023-04-06T03:46:20;40.60;;;24.08;;
18574;SDS011;9417;16.484;102.872;2023-04-06T03:48:30;30.88;;;23.65;;
18574;SDS011;9417;16.484;102.872;2023-04-06T03:50:40;30.20;;;23.98;;
18574;SDS011;9417;16.484;102.872;2023-04-06T03:52:48;50.58;;;25.08;;
18574;SDS011;9417;16.484;102.872;2023-04-06T03:54:55;35.40;;;24.33;;
18574;SDS011;9417;16.484;102.872;2023-04-06T03:57:02;33.83;;;24.55;;
18574;SDS011;9417;16.484;102.872;2023-04-06T03:59:10;33.85;;;23.80;;
18574;SDS011;9417;16.484;102.872;2023-04-06T04:01:19;34.97;;;24.70;;
18574;SDS011;9417;16.484;102.872;2023-04-06T04:03:26;36.00;;;24.48;;
18574;SDS011;9417;16.484;102.872;2023-04-06T04:05:34;29.42;;;24.90;;
18574;SDS011;9417;16.484;102.872;2023-04-06T04:07:41;35.83;;;25.52;;
18574;SDS011;9417;16.484;102.872;2023-04-06T04:09:48;38.95;;;25.98;;
18574;SDS011;9417;16.484;102.872;2023-04-06T04:11:56;37.38;;;24.40;;
18574;SDS011;9417;16.484;102.872;2023-04-06T04:14:04;41.88;;;27.48;;
18574;SDS011;9417;16.484;102.872;2023-04-06T04:16:13;34.95;;;26.73;;
18574;SDS011;9417;16.484;102.872;2023-04-06T04:18:21;36.65;;;26.67;;
18574;SDS011;9417;16.484;102.872;2023-04-06T04:20:28;33.03;;;26.45;;
18574;SDS011;9417;16.484;102.872;2023-04-06T04:22:36;32.55;;;26.05;;
18574;SDS011;9417;16.484;102.872;2023-04-06T04:24:44;34.15;;;26.83;;
18574;SDS011;9417;16.484;102.872;2023-04-06T04:26:52;34.55;;;28.15;;
18574;SDS011;9417;16.484;102.872;2023-04-06T04:29:00;36.30;;;28.75;;
18574;SDS011;9417;16.484;102.872;2023-04-06T04:31:10;34.65;;;28.88;;
18574;SDS011;9417;16.484;102.872;2023-04-06T04:33:26;38.28;;;28.15;;
18574;SDS011;9417;16.484;102.872;2023-04-06T04:35:36;38.40;;;26.58;;
18574;SDS011;9417;16.484;102.872;2023-04-06T04:37:47;34.28;;;26.20;;
18574;SDS011;9417;16.484;102.872;2023-04-06T04:39:54;34.15;;;26.70;;
18574;SDS011;9417;16.484;102.872;2023-04-06T04:42:04;36.80;;;26.88;;
18574;SDS011;9417;16.484;102.872;2023-04-06T04:44:17;34.17;;;27.20;;
18574;SDS011;9417;16.484;102.872;2023-04-06T04:46:27;34.50;;;25.83;;
18574;SDS011;9417;16.484;102.872;2023-04-06T04:48:35;35.25;;;28.42;;
18574;SDS011;9417;16.484;102.872;2023-04-06T04:50:43;32.78;;;26.80;;
18574;SDS011;9417;16.484;102.872;2023-04-06T04:52:51;36.83;;;26.98;;
18574;SDS011;9417;16.484;102.872;2023-04-06T04:55:01;36.22;;;28.42;;
18574;SDS011;9417;16.484;102.872;2023-04-06T04:57:08;36.92;;;27.85;;
18574;SDS011;9417;16.484;102.872;2023-04-06T04:59:18;33.75;;;26.50;;
18574;SDS011;9417;16.484;102.872;2023-04-06T05:01:35;35.47;;;26.98;;
18574;SDS011;9417;16.484;102.872;2023-04-06T05:04:00;33.22;;;26.77;;
18574;SDS011;9417;16.484;102.872;2023-04-06T05:06:08;41.00;;;27.52;;
18574;SDS011;9417;16.484;102.872;2023-04-06T05:08:16;39.42;;;27.50;;
18574;SDS011;9417;16.484;102.872;2023-04-06T05:10:24;37.22;;;27.88;;
18574;SDS011;9417;16.484;102.872;2023-04-06T05:12:35;34.77;;;27.87;;
18574;SDS011;9417;16.484;102.872;2023-04-06T05:14:45;35.20;;;28.80;;
18574;SDS011;9417;16.484;102.872;2023-04-06T05:16:55;40.75;;;29.05;;
18574;SDS011;9417;16.484;102.872;2023-04-06T05:19:03;34.97;;;29.33;;
18574;SDS011;9417;16.484;102.872;2023-04-06T05:21:16;39.45;;;29.92;;
18574;SDS011;9417;16.484;102.872;2023-04-06T05:23:35;37.63;;;29.17;;
18574;SDS011;9417;16.484;102.872;2023-04-06T05:25:42;40.58;;;29.48;;
18574;SDS011;9417;16.484;102.872;2023-04-06T05:27:56;40.15;;;29.85;;
18574;SDS011;9417;16.484;102.872;2023-04-06T05:30:07;40.15;;;31.77;;
18574;SDS011;9417;16.484;102.872;2023-04-06T05:32:20;38.88;;;29.48;;
18574;SDS011;9417;16.484;102.872;2023-04-06T05:34:28;36.40;;;28.63;;
18574;SDS011;9417;16.484;102.872;2023-04-06T05:36:38;37.35;;;27.30;;
18574;SDS011;9417;16.484;102.872;2023-04-06T05:38:58;38.58;;;28.73;;
18574;SDS011;9417;16.484;102.872;2023-04-06T05:41:25;39.03;;;30.38;;
18574;SDS011;9417;16.484;102.872;2023-04-06T05:43:33;37.88;;;29.98;;
18574;SDS011;9417;16.484;102.872;2023-04-06T05:45:40;42.28;;;32.15;;
18574;SDS011;9417;16.484;102.872;2023-04-06T05:47:52;43.60;;;30.63;;
18574;SDS011;9417;16.484;102.872;2023-04-06T05:50:03;41.13;;;31.58;;
18574;SDS011;9417;16.484;102.872;2023-04-06T05:52:13;39.45;;;30.38;;
18574;SDS011;9417;16.484;102.872;2023-04-06T05:54:22;36.65;;;31.02;;
18574;SDS011;9417;16.484;102.872;2023-04-06T05:56:35;37.40;;;29.65;;
18574;SDS011;9417;16.484;102.872;2023-04-06T05:58:45;40.35;;;31.15;;
18574;SDS011;9417;16.484;102.872;2023-04-06T06:00:59;37.72;;;29.38;;
18574;SDS011;9417;16.484;102.872;2023-04-06T06:03:15;37.60;;;29.92;;
18574;SDS011;9417;16.484;102.872;2023-04-06T06:05:27;39.92;;;30.90;;
18574;SDS011;9417;16.484;102.872;2023-04-06T07:54:53;45.08;;;34.05;;
18574;SDS011;9417;16.484;102.872;2023-04-06T07:57:00;42.80;;;35.00;;
18574;SDS011;9417;16.484;102.872;2023-04-06T07:59:08;43.42;;;34.42;;
18574;SDS011;9417;16.484;102.872;2023-04-06T08:01:17;40.58;;;33.83;;
18574;SDS011;9417;16.484;102.872;2023-04-06T08:03:26;42.78;;;36.25;;
18574;SDS011;9417;16.484;102.872;2023-04-06T08:05:33;45.45;;;36.90;;
18574;SDS011;9417;16.484;102.872;2023-04-06T08:07:41;37.83;;;33.45;;
18574;SDS011;9417;16.484;102.872;2023-04-06T08:09:48;40.53;;;34.17;;
18574;SDS011;9417;16.484;102.872;2023-04-06T08:11:57;43.55;;;34.97;;
18574;SDS011;9417;16.484;102.872;2023-04-06T08:14:04;42.63;;;33.90;;
18574;SDS011;9417;16.484;102.872;2023-04-06T08:16:12;45.17;;;33.10;;
18574;SDS011;9417;16.484;102.872;2023-04-06T08:18:20;40.33;;;34.00;;
18574;SDS011;9417;16.484;102.872;2023-04-06T08:20:27;39.95;;;33.90;;
18574;SDS011;9417;16.484;102.872;2023-04-06T08:22:34;42.58;;;33.08;;
18574;SDS011;9417;16.484;102.872;2023-04-06T08:24:41;42.58;;;33.50;;
18574;SDS011;9417;16.484;102.872;2023-04-06T08:26:48;46.30;;;34.13;;
18574;SDS011;9417;16.484;102.872;2023-04-06T08:28:57;42.65;;;35.38;;
18574;SDS011;9417;16.484;102.872;2023-04-06T08:31:05;41.35;;;33.85;;
18574;SDS011;9417;16.484;102.872;2023-04-06T08:33:13;39.90;;;34.50;;
18574;SDS011;9417;16.484;102.872;2023-04-06T08:35:20;44.90;;;34.33;;
18574;SDS011;9417;16.484;102.872;2023-04-06T08:37:28;41.83;;;33.53;;
18574;SDS011;9417;16.484;102.872;2023-04-06T08:39:35;45.67;;;35.97;;
18574;SDS011;9417;16.484;102.872;2023-04-06T08:41:42;45.53;;;34.65;;
18574;SDS011;9417;16.484;102.872;2023-04-06T08:43:51;39.58;;;32.88;;
18574;SDS011;9417;16.484;102.872;2023-04-06T08:46:04;38.05;;;33.33;;
18574;SDS011;9417;16.484;102.872;2023-04-06T08:48:11;38.63;;;33.03;;
18574;SDS011;9417;16.484;102.872;2023-04-06T08:50:20;44.55;;;34.03;;
18574;SDS011;9417;16.484;102.872;2023-04-06T08:52:29;43.22;;;33.05;;
18574;SDS011;9417;16.484;102.872;2023-04-06T08:54:37;37.70;;;31.30;;
18574;SDS011;9417;16.484;102.872;2023-04-06T08:56:45;38.78;;;32.20;;
18574;SDS011;9417;16.484;102.872;2023-04-06T08:58:53;37.72;;;30.25;;
18574;SDS011;9417;16.484;102.872;2023-04-06T09:01:03;36.72;;;30.52;;
18574;SDS011;9417;16.484;102.872;2023-04-06T09:03:14;35.50;;;29.48;;
18574;SDS011;9417;16.484;102.872;2023-04-06T09:05:23;35.47;;;30.35;;
18574;SDS011;9417;16.484;102.872;2023-04-06T09:07:31;37.17;;;30.50;;
18574;SDS011;9417;16.484;102.872;2023-04-06T09:09:38;37.15;;;31.23;;
18574;SDS011;9417;16.484;102.872;2023-04-06T09:11:51;37.20;;;30.60;;
18574;SDS011;9417;16.484;102.872;2023-04-06T09:13:59;36.03;;;30.60;;
18574;SDS011;9417;16.484;102.872;2023-04-06T09:16:08;36.08;;;30.27;;
18574;SDS011;9417;16.484;102.872;2023-04-06T09:18:18;35.67;;;30.25;;
18574;SDS011;9417;16.484;102.872;2023-04-06T09:20:35;43.35;;;32.20;;
18574;SDS011;9417;16.484;102.872;2023-04-06T09:22:42;38.97;;;30.00;;
18574;SDS011;9417;16.484;102.872;2023-04-06T09:24:50;38.58;;;32.00;;
18574;SDS011;9417;16.484;102.872;2023-04-06T09:26:58;41.72;;;30.15;;
18574;SDS011;9417;16.484;102.872;2023-04-06T09:29:06;38.65;;;30.65;;
18574;SDS011;9417;16.484;102.872;2023-04-06T09:31:15;36.22;;;29.27;;
18574;SDS011;9417;16.484;102.872;2023-04-06T09:33:26;37.97;;;28.92;;
18574;SDS011;9417;16.484;102.872;2023-04-06T09:35:34;35.97;;;28.67;;
18574;SDS011;9417;16.484;102.872;2023-04-06T09:37:41;37.60;;;28.95;;
18574;SDS011;9417;16.484;102.872;2023-04-06T09:39:49;38.08;;;29.05;;
18574;SDS011;9417;16.484;102.872;2023-04-06T09:41:58;31.55;;;27.55;;
18574;SDS011;9417;16.484;102.872;2023-04-06T09:44:06;39.20;;;27.42;;
18574;SDS011;9417;16.484;102.872;2023-04-06T09:46:16;32.50;;;24.98;;
18574;SDS011;9417;16.484;102.872;2023-04-06T09:48:26;30.88;;;24.95;;
18574;SDS011;9417;16.484;102.872;2023-04-06T09:50:37;31.85;;;25.15;;
18574;SDS011;9417;16.484;102.872;2023-04-06T09:52:46;32.30;;;25.92;;
18574;SDS011;9417;16.484;102.872;2023-04-06T09:54:58;38.60;;;26.05;;
18574;SDS011;9417;16.484;102.872;2023-04-06T09:57:10;32.92;;;26.17;;
18574;SDS011;9417;16.484;102.872;2023-04-06T09:59:25;32.03;;;25.85;;
18574;SDS011;9417;16.484;102.872;2023-04-06T10:01:45;33.28;;;25.60;;
18574;SDS011;9417;16.484;102.872;2023-04-06T10:04:00;35.03;;;25.95;;
18574;SDS011;9417;16.484;102.872;2023-04-06T10:06:16;31.40;;;24.98;;
18574;SDS011;9417;16.484;102.872;2023-04-06T10:08:29;32.47;;;25.75;;
18574;SDS011;9417;16.484;102.872;2023-04-06T10:10:38;39.40;;;25.70;;
18574;SDS011;9417;16.484;102.872;2023-04-06T10:12:46;32.88;;;24.95;;
18574;SDS011;9417;16.484;102.872;2023-04-06T10:14:54;28.38;;;23.85;;
18574;SDS011;9417;16.484;102.872;2023-04-06T10:17:04;34.15;;;24.55;;
18574;SDS011;9417;16.484;102.872;2023-04-06T10:19:12;31.20;;;23.63;;
18574;SDS011;9417;16.484;102.872;2023-04-06T10:21:23;35.17;;;24.73;;
18574;SDS011;9417;16.484;102.872;2023-04-06T10:23:32;36.22;;;24.90;;
18574;SDS011;9417;16.484;102.872;2023-04-06T10:25:51;31.63;;;25.63;;
18574;SDS011;9417;16.484;102.872;2023-04-06T10:27:59;32.15;;;24.63;;
18574;SDS011;9417;16.484;102.872;2023-04-06T10:30:07;35.60;;;24.20;;
18574;SDS011;9417;16.484;102.872;2023-04-06T10:32:16;29.58;;;23.50;;
18574;SDS011;9417;16.484;102.872;2023-04-06T10:34:24;30.00;;;23.10;;
18574;SDS011;9417;16.484;102.872;2023-04-06T10:36:41;32.75;;;24.17;;
18574;SDS011;9417;16.484;102.872;2023-04-06T10:38:53;34.50;;;23.80;;
18574;SDS011;9417;16.484;102.872;2023-04-06T10:41:05;29.95;;;23.38;;
18574;SDS011;9417;16.484;102.872;2023-04-06T10:43:13;34.38;;;24.27;;
18574;SDS011;9417;16.484;102.872;2023-04-06T10:45:25;31.42;;;25.25;;
18574;SDS011;9417;16.484;102.872;2023-04-06T10:47:40;33.13;;;25.40;;
18574;SDS011;9417;16.484;102.872;2023-04-06T10:49:47;32.28;;;22.52;;
18574;SDS011;9417;16.484;102.872;2023-04-06T10:51:55;33.53;;;23.83;;
18574;SDS011;9417;16.484;102.872;2023-04-06T10:54:03;32.58;;;23.63;;
18574;SDS011;9417;16.484;102.872;2023-04-06T10:56:12;29.95;;;23.48;;
18574;SDS011;9417;16.484;102.872;2023-04-06T10:58:23;33.97;;;24.00;;
18574;SDS011;9417;16.484;102.872;2023-04-06T11:00:31;31.40;;;24.42;;
18574;SDS011;9417;16.484;102.872;2023-04-06T11:03:00;28.42;;;23.35;;
18574;SDS011;9417;16.484;102.872;2023-04-06T11:05:07;32.17;;;25.13;;
18574;SDS011;9417;16.484;102.872;2023-04-06T11:07:22;33.28;;;25.42;;
18574;SDS011;9417;16.484;102.872;2023-04-06T11:09:30;35.67;;;25.60;;
18574;SDS011;9417;16.484;102.872;2023-04-06T11:11:40;33.28;;;24.08;;
18574;SDS011;9417;16.484;102.872;2023-04-06T11:13:49;35.85;;;24.83;;
18574;SDS011;9417;16.484;102.872;2023-04-06T11:15:56;36.72;;;24.65;;
18574;SDS011;9417;16.484;102.872;2023-04-06T11:18:05;29.73;;;23.77;;
18574;SDS011;9417;16.484;102.872;2023-04-06T11:20:13;35.10;;;24.45;;
18574;SDS011;9417;16.484;102.872;2023-04-06T11:22:21;33.70;;;25.02;;
18574;SDS011;9417;16.484;102.872;2023-04-06T11:24:28;36.45;;;26.27;;
18574;SDS011;9417;16.484;102.872;2023-04-06T11:26:39;35.42;;;27.10;;
18574;SDS011;9417;16.484;102.872;2023-04-06T11:28:47;39.00;;;27.63;;
18574;SDS011;9417;16.484;102.872;2023-04-06T11:30:55;36.88;;;26.70;;
18574;SDS011;9417;16.484;102.872;2023-04-06T11:33:05;31.27;;;25.73;;
18574;SDS011;9417;16.484;102.872;2023-04-06T11:35:20;32.60;;;24.83;;
18574;SDS011;9417;16.484;102.872;2023-04-06T11:37:28;32.75;;;26.65;;
18574;SDS011;9417;16.484;102.872;2023-04-06T11:39:37;36.10;;;25.25;;
18574;SDS011;9417;16.484;102.872;2023-04-06T11:41:47;39.22;;;27.65;;
18574;SDS011;9417;16.484;102.872;2023-04-06T11:43:54;39.85;;;28.50;;
18574;SDS011;9417;16.484;102.872;2023-04-06T11:46:02;35.90;;;27.83;;
18574;SDS011;9417;16.484;102.872;2023-04-06T11:48:20;37.38;;;25.27;;
18574;SDS011;9417;16.484;102.872;2023-04-06T11:50:31;35.03;;;26.15;;
18574;SDS011;9417;16.484;102.872;2023-04-06T11:52:40;33.63;;;26.63;;
18574;SDS011;9417;16.484;102.872;2023-04-06T11:54:47;33.75;;;25.70;;
18574;SDS011;9417;16.484;102.872;2023-04-06T11:56:55;35.00;;;26.23;;
18574;SDS011;9417;16.484;102.872;2023-04-06T11:59:04;37.55;;;27.98;;
18574;SDS011;9417;16.484;102.872;2023-04-06T12:01:11;37.30;;;28.38;;
18574;SDS011;9417;16.484;102.872;2023-04-06T12:03:18;43.67;;;30.33;;
18574;SDS011;9417;16.484;102.872;2023-04-06T12:05:28;41.30;;;31.60;;
18574;SDS011;9417;16.484;102.872;2023-04-06T12:07:35;42.42;;;31.88;;
18574;SDS011;9417;16.484;102.872;2023-04-06T12:09:43;45.15;;;32.05;;
18574;SDS011;9417;16.484;102.872;2023-04-06T12:11:51;41.28;;;33.28;;
18574;SDS011;9417;16.484;102.872;2023-04-06T12:13:59;42.65;;;33.63;;
18574;SDS011;9417;16.484;102.872;2023-04-06T12:16:08;44.25;;;34.22;;
18574;SDS011;9417;16.484;102.872;2023-04-06T12:18:16;47.92;;;35.20;;
18574;SDS011;9417;16.484;102.872;2023-04-06T12:20:25;69.82;;;46.63;;
18574;SDS011;9417;16.484;102.872;2023-04-06T12:22:32;90.05;;;61.05;;
18574;SDS011;9417;16.484;102.872;2023-04-06T12:24:40;87.65;;;57.67;;
18574;SDS011;9417;16.484;102.872;2023-04-06T12:26:47;88.95;;;60.65;;
18574;SDS011;9417;16.484;102.872;2023-04-06T12:29:08;77.03;;;51.17;;
18574;SDS011;9417;16.484;102.872;2023-04-06T12:31:17;68.03;;;48.30;;
18574;SDS011;9417;16.484;102.872;2023-04-06T12:33:25;66.45;;;46.70;;
18574;SDS011;9417;16.484;102.872;2023-04-06T12:35:35;74.68;;;47.65;;
18574;SDS011;9417;16.484;102.872;2023-04-06T12:37:42;66.40;;;45.70;;
18574;SDS011;9417;16.484;102.872;2023-04-06T12:39:49;63.38;;;45.33;;
18574;SDS011;9417;16.484;102.872;2023-04-06T12:41:58;67.13;;;46.33;;
18574;SDS011;9417;16.484;102.872;2023-04-06T12:44:06;62.80;;;45.45;;
18574;SDS011;9417;16.484;102.872;2023-04-06T12:46:13;60.70;;;42.90;;
18574;SDS011;9417;16.484;102.872;2023-04-06T12:48:20;57.88;;;41.72;;
18574;SDS011;9417;16.484;102.872;2023-04-06T12:50:28;64.30;;;43.40;;
18574;SDS011;9417;16.484;102.872;2023-04-06T12:52:37;58.10;;;41.42;;
18574;SDS011;9417;16.484;102.872;2023-04-06T12:54:44;55.50;;;39.67;;
18574;SDS011;9417;16.484;102.872;2023-04-06T12:56:54;52.05;;;39.55;;
18574;SDS011;9417;16.484;102.872;2023-04-06T12:59:01;54.40;;;40.05;;
18574;SDS011;9417;16.484;102.872;2023-04-06T13:01:09;53.70;;;37.40;;
18574;SDS011;9417;16.484;102.872;2023-04-06T13:03:17;53.28;;;37.97;;
18574;SDS011;9417;16.484;102.872;2023-04-06T13:05:24;58.42;;;40.10;;
18574;SDS011;9417;16.484;102.872;2023-04-06T13:07:34;54.35;;;38.45;;
18574;SDS011;9417;16.484;102.872;2023-04-06T13:09:43;56.65;;;37.88;;
18574;SDS011;9417;16.484;102.872;2023-04-06T13:11:53;51.00;;;37.70;;
18574;SDS011;9417;16.484;102.872;2023-04-06T13:14:00;54.03;;;36.85;;
18574;SDS011;9417;16.484;102.872;2023-04-06T13:16:08;48.45;;;36.20;;
18574;SDS011;9417;16.484;102.872;2023-04-06T13:18:15;53.70;;;37.33;;
18574;SDS011;9417;16.484;102.872;2023-04-06T13:20:22;51.78;;;36.22;;
18574;SDS011;9417;16.484;102.872;2023-04-06T13:22:30;47.13;;;34.90;;
18574;SDS011;9417;16.484;102.872;2023-04-06T13:24:39;46.65;;;35.20;;
18574;SDS011;9417;16.484;102.872;2023-04-06T13:26:46;49.90;;;34.25;;
18574;SDS011;9417;16.484;102.872;2023-04-06T13:28:54;48.67;;;35.58;;
18574;SDS011;9417;16.484;102.872;2023-04-06T13:31:01;46.30;;;34.72;;
18574;SDS011;9417;16.484;102.872;2023-04-06T13:33:09;49.08;;;34.30;;
18574;SDS011;9417;16.484;102.872;2023-04-06T13:35:16;47.20;;;34.13;;
18574;SDS011;9417;16.484;102.872;2023-04-06T13:37:24;46.97;;;33.83;;
18574;SDS011;9417;16.484;102.872;2023-04-06T13:39:31;52.40;;;35.53;;
18574;SDS011;9417;16.484;102.872;2023-04-06T13:41:40;50.63;;;36.05;;
18574;SDS011;9417;16.484;102.872;2023-04-06T13:43:48;46.75;;;34.92;;
18574;SDS011;9417;16.484;102.872;2023-04-06T13:45:55;51.42;;;35.42;;
18574;SDS011;9417;16.484;102.872;2023-04-06T13:48:04;47.25;;;34.15;;
18574;SDS011;9417;16.484;102.872;2023-04-06T13:50:12;49.75;;;33.75;;
18574;SDS011;9417;16.484;102.872;2023-04-06T13:52:19;51.53;;;35.22;;
18574;SDS011;9417;16.484;102.872;2023-04-06T13:54:26;48.03;;;34.42;;
18574;SDS011;9417;16.484;102.872;2023-04-06T13:56:34;47.72;;;33.95;;
18574;SDS011;9417;16.484;102.872;2023-04-06T13:58:43;46.65;;;33.47;;
18574;SDS011;9417;16.484;102.872;2023-04-06T14:00:50;46.42;;;34.78;;
18574;SDS011;9417;16.484;102.872;2023-04-06T14:02:58;46.33;;;34.33;;
18574;SDS011;9417;16.484;102.872;2023-04-06T14:05:05;47.35;;;32.70;;
18574;SDS011;9417;16.484;102.872;2023-04-06T14:07:13;51.50;;;33.45;;
18574;SDS011;9417;16.484;102.872;2023-04-06T14:09:20;45.95;;;33.72;;
18574;SDS011;9417;16.484;102.872;2023-04-06T14:11:27;46.47;;;34.10;;
18574;SDS011;9417;16.484;102.872;2023-04-06T14:13:35;53.60;;;33.72;;
18574;SDS011;9417;16.484;102.872;2023-04-06T14:15:43;51.42;;;34.65;;
18574;SDS011;9417;16.484;102.872;2023-04-06T14:17:51;46.92;;;33.50;;
18574;SDS011;9417;16.484;102.872;2023-04-06T14:19:58;44.88;;;32.50;;